VOML

Mangalore International Airport

Airport
ICAO code
VOML
Summary
ICAO Region
APAC
ICAO Territory
Location

Mangalore, Karnataka,

Coordinates
12° 57' 14" N , 74° 53' 9" E
Airport CFIT
Runway Visual Perspective
Airport WX
Cumulonimbus
Metar
Observation
VOML 060500Z 06004KT 8000 FEW012 BKN090 27/23 Q1010 NOSIG
Station
Mangalore / Bajpe
Date/Time
2022-10-06 05:00:00
Wind direction
60°
Wind speed
04 kts
Lowest cloud amount
few clouds
Temperature
27°C
Dew point
23°C
Humidity
78%
QNH
1010 hPa
Weather condition
n/a

Description

Mangalore International Airport, formerly Bajpe Airport, is a domestic and international airport serving the coastal city of Mangalore, India. The airport is located near Bajpe, approximately 20 km north-east of the city centre.

The airport is located on top of a hill, with the runway landing approaches leading up to the extreme edges of the hill sides and thus called a table top runway.

Climatology

Tropical Monsoon climate (Köppen climate classification Am) - monthly mean temperatures above 18°C in every month of the year and features wet and dry seasons. A tropical monsoon climate typically features less pronounced dry seasons than a tropical savanna climate and see less variance in temperatures during the course of the year. The driest month nearly always occurs at or soon after the "winter" solstice.

Airport map

Aerial View

SKYbrary Partners:

Safety knowledge contributed by: